Terminal Aerodrome Forecast
Issued by NWS

Home | Current Version | Previous Version | Text Only | Print | Product List | Glossary On
Versions: 1 2 3 4 5 6 7 8 9 10 11 12 13 14 15 16 17 18 19 20 21 22 23 24 25 26 27
000
FTUS46 KMTR 182300
TAFSFO
TAF
KSFO 182337Z 1900/2006 VRB03KT P6SM FEW026 SCT035 BKN050
     FM190300 15006KT P6SM SCT025 BKN035
     FM190900 15010KT P6SM -RA OVC025
     FM192100 22008KT P6SM -SHRA BKN030
     FM192300 26007KT P6SM -SHRA FEW025 BKN035=

USA.gov is the U.S. government's official web portal to all federal, state and local government web resources and services.